createdAt,value
2022-08-05T13:40:16.616Z,3.58
2022-08-05T13:42:41.323Z,3.85
2022-08-05T13:45:08.729Z,1.98
2022-08-05T13:48:09.961Z,4.50
2022-08-05T13:50:24.364Z,1.92
2022-08-05T13:52:51.127Z,2.13
2022-08-05T13:55:41.762Z,2.10
2022-08-05T13:58:05.604Z,1.65
2022-08-05T14:00:32.336Z,1.73
2022-08-05T14:03:01.462Z,1.70
2022-08-05T14:05:47.919Z,1.50
2022-08-05T14:08:21.325Z,1.30
2022-08-05T14:11:03.171Z,1.27
2022-08-05T14:13:41.332Z,1.60
2022-08-05T14:16:11.082Z,1.17
2022-08-05T14:18:38.143Z,1.10
2022-08-05T14:22:08.525Z,1.10
2022-08-05T14:23:51.723Z,1.63
2022-08-05T14:26:35.699Z,1.00
2022-08-05T14:29:06.197Z,0.90
2022-08-05T14:32:02.999Z,0.90
2022-08-05T14:34:30.131Z,1.00
2022-08-05T14:37:02.539Z,1.42
2022-08-05T14:39:29.540Z,1.10
2022-08-05T14:42:19.085Z,1.23
2022-08-05T14:44:43.105Z,1.10
2022-08-05T14:47:09.855Z,1.33
2022-08-05T14:49:59.112Z,1.35
2022-08-05T14:52:50.554Z,1.42
2022-08-05T14:55:15.347Z,1.30
2022-08-05T14:57:54.275Z,1.50
2022-08-05T15:00:27.757Z,1.50
2022-08-05T15:02:55.438Z,1.63
2022-08-05T15:05:22.313Z,1.15
2022-08-05T15:08:11.295Z,1.48
2022-08-05T15:10:43.514Z,1.15
2022-08-05T15:13:13.053Z,1.60
2022-08-05T15:15:55.842Z,1.38
2022-08-05T15:20:50.336Z,1.50
2022-08-05T15:23:18.317Z,1.33
2022-08-05T15:25:53.789Z,1.30
2022-08-05T15:28:27.781Z,1.25
2022-08-05T15:30:55.000Z,1.53
2022-08-05T15:33:53.707Z,1.60
2022-08-05T15:36:17.812Z,1.52
2022-08-05T15:39:07.623Z,1.40
2022-08-05T15:41:58.353Z,1.10
2022-08-05T15:44:27.940Z,1.25
2022-08-05T15:46:56.941Z,1.13
2022-08-05T15:49:53.781Z,1.27
2022-08-05T15:52:16.401Z,1.50
2022-08-05T15:54:44.017Z,1.50
2022-08-05T15:57:10.982Z,1.35
2022-08-05T15:59:39.247Z,1.27
2022-08-05T16:02:09.526Z,1.20
2022-08-05T16:04:42.427Z,1.13
2022-08-05T16:07:10.551Z,1.45
2022-08-05T16:09:37.788Z,1.50
2022-08-05T16:12:09.529Z,1.20
2022-08-05T16:14:38.249Z,1.48
2022-08-05T16:17:05.134Z,0.93
2022-08-05T16:20:04.843Z,1.38
2022-08-05T16:22:27.598Z,1.20
2022-08-05T16:25:00.562Z,1.20
2022-08-05T16:27:47.127Z,1.42
2022-08-05T16:30:25.974Z,0.85
2022-08-05T16:32:53.655Z,1.08
2022-08-05T16:35:27.711Z,1.15
2022-08-05T16:38:03.582Z,1.00
2022-08-05T16:40:42.642Z,1.00
2022-08-05T16:43:16.592Z,1.20
2022-08-05T16:46:05.011Z,1.10
2022-08-05T16:48:35.086Z,0.90
2022-08-05T16:51:02.288Z,1.00
2022-08-05T16:54:02.220Z,1.10
2022-08-05T16:56:18.903Z,1.10
2022-08-05T16:58:46.526Z,1.00
2022-08-05T17:01:13.359Z,1.23
2022-08-05T17:03:40.541Z,1.35
2022-08-05T17:06:07.838Z,1.15
2022-08-05T17:08:51.964Z,1.30
2022-08-05T17:11:19.656Z,1.40
2022-08-05T17:13:50.426Z,1.20
2022-08-05T17:16:32.480Z,1.40
2022-08-05T17:19:01.012Z,1.60
2022-08-05T17:21:35.490Z,1.40
2022-08-05T17:24:19.778Z,1.50
2022-08-05T17:26:51.310Z,1.33
2022-08-05T17:29:22.729Z,1.50
2022-08-05T17:31:59.779Z,1.27
2022-08-05T17:34:30.028Z,1.52
2022-08-05T17:37:00.313Z,1.70
2022-08-05T17:39:34.656Z,1.30
2022-08-05T17:42:28.611Z,1.95
2022-08-05T17:44:51.118Z,2.22
2022-08-05T17:47:23.077Z,2.15
2022-08-05T17:49:59.780Z,1.20
2022-08-05T17:52:34.130Z,1.63
2022-08-05T17:55:03.083Z,1.60
2022-08-05T17:57:30.274Z,1.20
2022-08-05T18:00:03.483Z,1.38
2022-08-05T18:02:35.740Z,1.20
2022-08-05T18:05:07.604Z,1.20
2022-08-05T18:07:41.796Z,1.60
2022-08-05T18:10:20.331Z,1.77
2022-08-05T18:12:47.962Z,1.70
2022-08-05T18:15:14.804Z,1.73
2022-08-05T18:18:01.034Z,1.95
2022-08-05T18:20:29.246Z,1.80
2022-08-05T18:23:00.654Z,1.60
2022-08-05T18:25:39.118Z,1.88
2022-08-05T18:28:06.729Z,1.60
2022-08-05T18:30:34.323Z,1.73
2022-08-05T18:33:02.155Z,1.55
2022-08-05T18:36:00.043Z,1.40
2022-08-05T18:38:19.427Z,1.40
2022-08-05T18:41:53.730Z,2.10
2022-08-05T18:43:43.139Z,1.63
2022-08-05T18:46:19.947Z,1.80
2022-08-05T18:48:52.620Z,1.73
2022-08-05T18:52:05.714Z,1.88
2022-08-05T18:54:30.916Z,1.80
2022-08-05T18:57:01.604Z,2.00
2022-08-05T18:59:42.666Z,1.77
2022-08-05T19:02:26.428Z,1.92
2022-08-05T19:05:01.652Z,1.85
2022-08-05T19:07:45.191Z,1.67
2022-08-05T19:10:12.277Z,2.15
2022-08-05T19:12:39.066Z,2.05
2022-08-05T19:15:06.530Z,1.60
2022-08-05T19:18:08.838Z,1.70
2022-08-05T19:20:37.109Z,1.90
2022-08-05T19:23:08.730Z,1.85
2022-08-05T19:26:01.625Z,1.75
2022-08-05T19:28:29.374Z,1.25
2022-08-05T19:30:56.124Z,1.38
2022-08-05T19:33:35.185Z,1.60
2022-08-05T19:36:06.198Z,0.98
2022-08-05T19:38:37.418Z,0.95
2022-08-05T19:41:07.353Z,0.90
2022-08-05T19:44:05.476Z,0.90
2022-08-05T19:46:30.433Z,1.33
2022-08-05T19:49:05.299Z,0.90
2022-08-05T19:52:04.615Z,0.95
2022-08-05T19:54:28.448Z,1.00
2022-08-05T19:57:06.255Z,0.80
2022-08-05T19:59:56.195Z,0.90
2022-08-05T20:02:23.012Z,1.00
2022-08-05T20:04:50.064Z,1.00
2022-08-05T20:07:47.835Z,1.27
2022-08-05T20:10:11.724Z,0.90
2022-08-05T20:12:47.625Z,0.93
2022-08-05T20:15:48.468Z,0.90
2022-08-05T20:18:10.042Z,1.20
2022-08-05T20:20:56.623Z,1.08
2022-08-05T20:23:39.928Z,0.90
2022-08-05T20:26:16.485Z,1.20
2022-08-05T20:28:45.799Z,1.02
2022-08-05T20:31:13.786Z,0.90
2022-08-05T20:33:44.557Z,0.80
2022-08-05T20:36:11.791Z,0.70
2022-08-05T20:38:54.166Z,1.08
2022-08-05T20:44:19.085Z,0.98
2022-08-05T20:47:00.862Z,1.00
2022-08-05T20:49:27.778Z,1.15
2022-08-05T20:51:57.345Z,1.10
2022-08-05T20:54:26.151Z,1.15
2022-08-05T20:57:14.456Z,1.20
2022-08-05T20:59:46.240Z,1.08
2022-08-05T21:02:28.347Z,1.08
2022-08-05T21:04:55.420Z,0.80
2022-08-05T21:07:24.127Z,0.93
2022-08-05T21:09:53.802Z,1.00
2022-08-05T21:12:21.739Z,0.80
2022-08-05T21:14:53.965Z,1.00
2022-08-05T21:17:22.102Z,1.00
2022-08-05T21:19:50.428Z,0.90
2022-08-05T21:22:18.630Z,0.95
2022-08-05T21:24:51.931Z,0.93
2022-08-05T21:27:25.097Z,0.90
2022-08-05T21:29:58.286Z,1.17
2022-08-05T21:32:29.286Z,0.88
2022-08-05T21:35:17.541Z,0.80
2022-08-05T21:37:52.774Z,1.05
2022-08-05T21:40:22.448Z,1.10
2022-08-05T21:42:51.934Z,1.08
2022-08-05T21:45:24.646Z,1.10
2022-08-05T21:48:08.163Z,1.00
2022-08-05T21:50:36.768Z,1.42
2022-08-05T21:53:16.240Z,1.20
2022-08-05T21:56:05.543Z,1.30
2022-08-05T21:58:32.200Z,1.10
2022-08-05T22:00:59.787Z,1.35
2022-08-05T22:03:48.238Z,1.20
2022-08-05T22:06:15.891Z,1.83
2022-08-05T22:08:51.649Z,1.42
2022-08-05T22:11:19.399Z,1.70
2022-08-05T22:14:33.775Z,1.60
2022-08-05T22:16:51.814Z,1.98
2022-08-05T22:20:01.157Z,1.88
2022-08-05T22:22:12.904Z,1.80
2022-08-05T22:25:01.577Z,1.83
2022-08-05T22:28:08.942Z,2.72
2022-08-05T22:30:34.938Z,2.30
2022-08-05T22:33:03.381Z,2.05
2022-08-05T22:35:38.611Z,2.30
2022-08-05T22:38:15.364Z,2.63
2022-08-05T22:40:42.237Z,2.30
2022-08-05T22:43:36.567Z,1.80
2022-08-05T22:46:09.060Z,2.50
2022-08-05T22:48:40.144Z,1.95
2022-08-05T22:51:07.866Z,2.00
2022-08-05T22:53:35.762Z,2.35
2022-08-05T22:56:03.020Z,2.22
2022-08-05T22:58:29.725Z,2.67
2022-08-05T23:00:59.674Z,2.50
2022-08-05T23:03:59.085Z,3.47
2022-08-05T23:06:13.059Z,2.70
2022-08-05T23:08:40.228Z,3.13
2022-08-05T23:11:08.634Z,3.30
2022-08-05T23:13:35.507Z,4.03
2022-08-05T23:16:03.959Z,4.32
2022-08-05T23:18:30.652Z,4.00
2022-08-05T23:20:59.100Z,4.22
2022-08-05T23:23:26.162Z,4.30
2022-08-05T23:25:57.038Z,4.20
2022-08-05T23:28:29.167Z,3.95
2022-08-05T23:30:56.026Z,3.45
2022-08-05T23:34:05.140Z,4.10
2022-08-05T23:36:28.560Z,3.88
2022-08-05T23:39:06.577Z,3.35
2022-08-05T23:41:34.382Z,3.67
2022-08-05T23:44:08.879Z,4.32
2022-08-05T23:46:37.439Z,3.58
2022-08-05T23:49:16.171Z,3.25
2022-08-05T23:52:02.839Z,4.00
2022-08-05T23:54:38.120Z,4.10
2022-08-05T23:57:06.261Z,4.20
2022-08-05T23:59:37.574Z,3.83
